createdAt,value
2023-02-01T00:00:34.024Z,8.82
2023-02-01T00:03:01.568Z,10.05
2023-02-01T00:05:30.269Z,9.45
2023-02-01T00:07:57.652Z,9.50
2023-02-01T00:10:25.093Z,6.30
2023-02-01T00:12:52.490Z,7.50
2023-02-01T00:15:20.424Z,8.77
2023-02-01T00:17:47.815Z,9.45
2023-02-01T00:20:15.209Z,7.22
2023-02-01T00:22:43.917Z,9.02
2023-02-01T00:25:11.296Z,7.13
2023-02-01T00:27:38.720Z,8.93
2023-02-01T00:30:07.165Z,10.48
2023-02-01T00:32:34.546Z,8.43
2023-02-01T00:35:01.905Z,6.13
2023-02-01T00:37:29.294Z,10.80
2023-02-01T00:39:58.025Z,7.70
2023-02-01T00:42:25.482Z,9.43
2023-02-01T00:44:52.844Z,9.57
2023-02-01T00:47:20.901Z,9.75
2023-02-01T00:49:48.304Z,10.45
2023-02-01T00:52:15.707Z,9.77
2023-02-01T00:54:43.132Z,7.03
2023-02-01T00:57:11.859Z,9.80
2023-02-01T00:59:39.242Z,8.23
2023-02-01T01:02:06.659Z,11.77
2023-02-01T01:04:34.083Z,9.57
2023-02-01T01:07:01.478Z,11.45
2023-02-01T01:09:28.874Z,6.75
2023-02-01T01:11:56.294Z,8.88
2023-02-01T01:14:24.976Z,10.18
2023-02-01T01:16:52.392Z,9.68
2023-02-01T01:19:19.781Z,8.05
2023-02-01T01:21:47.164Z,8.30
2023-02-01T01:24:14.631Z,9.30
2023-02-01T01:26:42.034Z,10.75
2023-02-01T01:29:10.698Z,7.25
2023-02-01T01:31:39.416Z,9.93
2023-02-01T01:34:06.830Z,10.80
2023-02-01T01:36:34.226Z,6.65
2023-02-01T01:39:01.638Z,7.55
2023-02-01T01:41:32.447Z,10.25
2023-02-01T01:44:00.802Z,8.57
2023-02-01T01:46:29.078Z,6.90
2023-02-01T01:49:03.279Z,8.43
2023-02-01T01:51:30.824Z,9.00
2023-02-01T01:54:01.395Z,5.03
2023-02-01T01:56:29.277Z,7.53
2023-02-01T01:58:56.657Z,8.73
2023-02-01T02:01:24.023Z,9.35
2023-02-01T02:03:51.403Z,6.78
2023-02-01T02:06:25.118Z,10.68
2023-02-01T02:08:52.541Z,9.02
2023-02-01T02:11:19.914Z,10.05
2023-02-01T02:13:49.011Z,10.38
2023-02-01T02:16:30.097Z,7.68
2023-02-01T02:19:03.278Z,10.00
2023-02-01T02:21:43.501Z,8.55
2023-02-01T02:27:23.754Z,7.60
2023-02-01T02:30:33.178Z,7.53
2023-02-01T02:33:28.614Z,7.32
2023-02-01T02:35:58.011Z,7.32
2023-02-01T02:38:28.895Z,9.05
2023-02-01T02:41:01.058Z,6.47
2023-02-01T02:43:49.229Z,7.57
2023-02-01T02:46:35.992Z,6.85
2023-02-01T02:49:06.687Z,9.73
2023-02-01T02:51:54.270Z,7.72
2023-02-01T02:54:41.179Z,9.10
2023-02-01T02:57:26.996Z,7.45
2023-02-01T03:00:11.939Z,8.73
2023-02-01T03:02:56.708Z,6.90
2023-02-01T03:05:26.357Z,7.60
2023-02-01T03:07:57.596Z,7.90
2023-02-01T03:10:28.235Z,9.43
2023-02-01T03:12:57.795Z,9.70
2023-02-01T03:15:27.107Z,6.68
2023-02-01T03:17:54.488Z,8.10
2023-02-01T03:20:22.903Z,6.53
2023-02-01T03:22:51.799Z,7.80
2023-02-01T03:25:20.657Z,11.38
2023-02-01T03:27:49.904Z,9.82
2023-02-01T03:30:20.176Z,10.97
2023-02-01T03:33:00.820Z,9.48
2023-02-01T03:35:30.776Z,7.18
2023-02-01T03:38:04.122Z,8.52
2023-02-01T03:40:31.818Z,8.77
2023-02-01T03:42:59.195Z,7.75
2023-02-01T03:45:28.184Z,8.07
2023-02-01T03:47:57.536Z,9.02
2023-02-01T03:50:26.140Z,9.20
2023-02-01T03:52:55.177Z,9.07
2023-02-01T03:55:24.371Z,8.27
2023-02-01T03:57:53.833Z,10.30
2023-02-01T04:00:23.864Z,6.65
2023-02-01T04:02:51.718Z,10.80
2023-02-01T04:05:19.095Z,9.68
2023-02-01T04:07:46.515Z,11.20
2023-02-01T04:10:13.990Z,9.65
2023-02-01T04:12:42.733Z,10.32
2023-02-01T04:15:10.838Z,12.25
2023-02-01T04:17:40.754Z,10.35
2023-02-01T04:20:09.894Z,11.85
2023-02-01T04:22:37.296Z,4.95
2023-02-01T04:25:06.601Z,8.73
2023-02-01T04:27:33.978Z,9.50
2023-02-01T04:30:02.666Z,7.72
2023-02-01T04:32:30.055Z,10.18
2023-02-01T04:34:57.437Z,9.27
2023-02-01T04:37:24.813Z,8.70
2023-02-01T04:39:52.207Z,8.45
2023-02-01T04:42:19.598Z,7.68
2023-02-01T04:44:46.978Z,9.93
2023-02-01T04:47:16.545Z,8.98
2023-02-01T04:49:43.947Z,9.18
2023-02-01T04:52:11.306Z,8.13
2023-02-01T04:54:39.035Z,8.00
2023-02-01T04:57:06.405Z,9.15
2023-02-01T04:59:33.796Z,8.25
2023-02-01T05:02:01.186Z,8.27
2023-02-01T05:04:29.940Z,8.68
2023-02-01T05:06:57.342Z,7.97
2023-02-01T05:09:24.722Z,8.32
2023-02-01T05:12:09.455Z,9.50
2023-02-01T05:14:36.871Z,9.93
2023-02-01T05:17:04.245Z,12.20
2023-02-01T05:19:32.936Z,10.10
2023-02-01T05:22:00.308Z,9.00
2023-02-01T05:24:27.977Z,7.93
2023-02-01T05:26:55.370Z,11.05
2023-02-01T05:29:22.766Z,8.40
2023-02-01T05:31:50.319Z,8.30
2023-02-01T05:34:17.783Z,8.82
2023-02-01T05:36:46.492Z,8.60
2023-02-01T05:39:13.930Z,6.65
2023-02-01T05:41:41.312Z,9.60
2023-02-01T05:44:08.808Z,8.15
2023-02-01T05:46:36.235Z,8.85
2023-02-01T05:49:03.663Z,10.77
2023-02-01T05:51:31.256Z,7.47
2023-02-01T05:53:59.955Z,8.32
2023-02-01T05:56:27.337Z,8.68
2023-02-01T05:58:54.726Z,9.00
2023-02-01T06:01:22.176Z,6.55
2023-02-01T06:03:49.586Z,10.10
2023-02-01T06:06:17.006Z,6.88
2023-02-01T06:08:44.386Z,7.78
2023-02-01T06:11:30.609Z,7.70
2023-02-01T06:13:59.501Z,6.45
2023-02-01T06:16:27.011Z,5.47
2023-02-01T06:18:54.780Z,8.65
2023-02-01T06:21:25.237Z,5.45
2023-02-01T06:23:52.678Z,5.07
2023-02-01T06:26:21.619Z,7.95
2023-02-01T06:28:49.037Z,6.70
2023-02-01T06:31:16.527Z,8.43
2023-02-01T06:33:44.024Z,6.38
2023-02-01T06:36:11.971Z,5.85
2023-02-01T06:38:39.757Z,7.60
2023-02-01T06:41:07.171Z,7.22
2023-02-01T06:43:35.890Z,9.00
2023-02-01T06:46:03.693Z,13.13
2023-02-01T06:48:31.114Z,10.07
2023-02-01T06:50:58.518Z,8.88
2023-02-01T06:53:25.943Z,8.48
2023-02-01T06:55:54.577Z,11.80
2023-02-01T06:58:21.958Z,7.80
2023-02-01T07:00:51.280Z,9.07
2023-02-01T07:03:18.670Z,6.97
2023-02-01T07:05:46.059Z,8.40
2023-02-01T07:08:13.675Z,10.68
2023-02-01T07:10:41.106Z,8.60
2023-02-01T07:13:08.728Z,10.05
2023-02-01T07:15:36.155Z,10.75
2023-02-01T07:18:05.223Z,11.00
2023-02-01T07:20:32.640Z,9.15
2023-02-01T07:23:00.057Z,9.00
2023-02-01T07:25:27.467Z,10.73
2023-02-01T07:27:54.863Z,12.05
2023-02-01T07:30:22.629Z,8.10
2023-02-01T07:32:50.150Z,6.68
2023-02-01T07:35:18.899Z,6.20
2023-02-01T07:37:46.293Z,7.70
2023-02-01T07:40:14.067Z,8.73
2023-02-01T07:42:41.456Z,9.45
2023-02-01T07:45:20.962Z,9.13
2023-02-01T07:47:48.551Z,8.05
2023-02-01T07:50:16.027Z,10.63
2023-02-01T07:52:44.745Z,10.43
2023-02-01T07:55:12.155Z,11.15
2023-02-01T07:57:39.578Z,11.20
2023-02-01T08:00:25.659Z,13.75
2023-02-01T08:02:53.112Z,17.55
2023-02-01T08:05:21.211Z,8.43
2023-02-01T08:07:51.907Z,13.38
2023-02-01T08:10:19.427Z,11.10
2023-02-01T08:12:48.614Z,7.43
2023-02-01T08:15:17.033Z,14.60
2023-02-01T08:17:48.467Z,8.80
2023-02-01T08:20:15.950Z,12.73
2023-02-01T08:22:43.333Z,9.02
2023-02-01T08:25:12.462Z,13.13
2023-02-01T08:27:39.977Z,11.38
2023-02-01T08:30:09.175Z,10.27
2023-02-01T08:32:36.607Z,4.97
2023-02-01T08:35:04.095Z,10.00
2023-02-01T08:37:31.549Z,9.18
2023-02-01T08:39:58.972Z,8.68
2023-02-01T08:42:45.329Z,7.90
2023-02-01T08:45:12.980Z,7.65
2023-02-01T08:47:40.354Z,6.65
2023-02-01T08:50:08.482Z,8.20
2023-02-01T08:52:38.118Z,9.77
2023-02-01T08:55:06.542Z,6.70
2023-02-01T08:57:35.257Z,11.02
2023-02-01T09:00:03.052Z,11.57
2023-02-01T09:02:30.429Z,10.48
2023-02-01T09:05:00.879Z,8.93
2023-02-01T09:07:28.311Z,13.50
2023-02-01T09:09:57.240Z,9.98
2023-02-01T09:12:24.681Z,11.82
2023-02-01T09:14:53.688Z,8.23
2023-02-01T09:17:21.116Z,18.95
2023-02-01T09:19:48.528Z,15.57
2023-02-01T09:22:16.430Z,14.95
2023-02-01T09:24:43.866Z,14.23
2023-02-01T09:27:11.360Z,11.25
2023-02-01T09:29:38.785Z,14.05
2023-02-01T09:32:08.241Z,11.95
2023-02-01T09:34:35.803Z,11.60
2023-02-01T09:37:03.439Z,14.80
2023-02-01T09:39:31.838Z,14.05
2023-02-01T09:42:04.205Z,11.50
2023-02-01T09:44:45.005Z,12.02
2023-02-01T09:47:17.486Z,11.50
2023-02-01T09:49:53.675Z,10.52
2023-02-01T09:52:23.826Z,15.50
2023-02-01T09:57:21.254Z,11.55
2023-02-01T09:59:50.000Z,12.35
2023-02-01T10:02:20.099Z,9.93
2023-02-01T10:04:47.497Z,12.25
2023-02-01T10:07:21.307Z,12.40
2023-02-01T10:10:01.092Z,18.05
2023-02-01T10:12:50.427Z,19.60
2023-02-01T10:15:25.278Z,18.52
2023-02-01T10:18:01.587Z,18.38
2023-02-01T10:20:30.996Z,14.05
2023-02-01T10:23:23.207Z,15.45
2023-02-01T10:25:54.167Z,14.07
2023-02-01T10:28:22.711Z,15.70
2023-02-01T10:30:50.277Z,14.77
2023-02-01T10:33:20.483Z,16.67
2023-02-01T10:38:20.453Z,11.82
2023-02-01T10:40:47.839Z,17.90
2023-02-01T10:43:15.203Z,14.48
2023-02-01T10:45:43.367Z,15.05
2023-02-01T10:48:10.734Z,11.70
2023-02-01T10:50:41.428Z,15.95
2023-02-01T10:53:11.734Z,13.73
2023-02-01T10:55:41.405Z,13.57
2023-02-01T10:58:09.645Z,10.82
2023-02-01T11:00:45.143Z,14.30
2023-02-01T11:03:23.733Z,12.38
2023-02-01T11:05:52.455Z,14.23
2023-02-01T11:08:19.832Z,14.07
2023-02-01T11:10:47.207Z,13.07
2023-02-01T11:13:17.313Z,12.70
2023-02-01T11:18:17.636Z,11.20
2023-02-01T11:20:45.032Z,12.65
2023-02-01T11:23:17.259Z,12.63
2023-02-01T11:25:50.218Z,13.05
2023-02-01T11:28:17.615Z,9.82
2023-02-01T11:30:46.246Z,13.75
2023-02-01T11:33:15.401Z,13.13
2023-02-01T11:35:43.112Z,15.35
2023-02-01T11:38:21.528Z,13.85
2023-02-01T11:40:48.922Z,14.70
2023-02-01T11:43:18.936Z,14.10
2023-02-01T11:45:55.602Z,10.90
2023-02-01T11:48:26.821Z,11.07
2023-02-01T11:51:00.714Z,8.77
2023-02-01T11:53:40.809Z,10.85
2023-02-01T11:56:13.895Z,11.88
2023-02-01T11:58:50.307Z,10.10
2023-02-01T12:01:28.976Z,10.00
2023-02-01T12:04:15.200Z,12.27
2023-02-01T12:06:50.385Z,9.27
2023-02-01T12:09:27.091Z,8.25
2023-02-01T12:12:00.477Z,8.82
2023-02-01T12:14:36.856Z,6.60
2023-02-01T12:17:16.626Z,12.20
2023-02-01T12:19:56.082Z,8.25
2023-02-01T12:22:30.494Z,12.13
2023-02-01T12:25:08.327Z,12.80
2023-02-01T12:27:47.804Z,11.30
2023-02-01T12:30:37.269Z,8.07
2023-02-01T12:33:08.001Z,10.95
2023-02-01T12:35:49.418Z,10.95
2023-02-01T12:38:22.927Z,9.73
2023-02-01T12:41:00.431Z,12.98
2023-02-01T12:43:36.249Z,9.57
2023-02-01T12:46:05.945Z,10.40
2023-02-01T12:48:35.623Z,9.18
2023-02-01T12:51:04.708Z,8.52
2023-02-01T12:53:38.536Z,10.30
2023-02-01T12:56:08.951Z,8.55
2023-02-01T12:58:40.351Z,8.80
2023-02-01T13:01:09.598Z,6.50
2023-02-01T13:03:38.580Z,8.90
2023-02-01T13:06:08.954Z,9.90
2023-02-01T13:08:40.558Z,7.63
2023-02-01T13:11:14.624Z,8.52
2023-02-01T13:13:47.145Z,8.30
2023-02-01T13:16:19.127Z,5.68
2023-02-01T13:18:48.198Z,6.55
2023-02-01T13:21:17.924Z,8.05
2023-02-01T13:23:46.952Z,6.25
2023-02-01T13:26:16.855Z,8.50
2023-02-01T13:28:46.767Z,5.72
2023-02-01T13:31:32.158Z,7.15
2023-02-01T13:34:18.710Z,5.35
2023-02-01T13:36:51.466Z,6.15
2023-02-01T13:39:46.113Z,5.18
2023-02-01T13:42:20.247Z,6.30
2023-02-01T13:44:49.022Z,5.60
2023-02-01T13:47:24.903Z,5.97
2023-02-01T13:49:52.295Z,5.82
2023-02-01T13:52:29.193Z,7.20
2023-02-01T13:55:16.799Z,5.82
2023-02-01T13:57:45.841Z,5.68
2023-02-01T14:00:25.711Z,4.15
2023-02-01T14:03:16.712Z,4.53
2023-02-01T14:06:04.643Z,5.28
2023-02-01T14:08:40.880Z,4.50
2023-02-01T14:11:08.482Z,5.10
2023-02-01T14:13:37.781Z,5.10
2023-02-01T14:16:16.396Z,6.45
2023-02-01T14:19:10.966Z,8.60
2023-02-01T14:21:48.735Z,9.07
2023-02-01T14:24:24.445Z,7.45
2023-02-01T14:26:53.062Z,6.75
2023-02-01T14:29:32.678Z,5.85
2023-02-01T14:32:06.698Z,5.95
2023-02-01T14:34:43.809Z,7.18
2023-02-01T14:37:12.452Z,6.93
2023-02-01T14:39:51.518Z,7.55
2023-02-01T14:42:24.384Z,7.40
2023-02-01T14:44:58.635Z,7.93
2023-02-01T14:47:33.996Z,6.03
2023-02-01T14:50:23.087Z,4.50
2023-02-01T14:52:53.798Z,5.03
2023-02-01T14:55:24.204Z,5.80
2023-02-01T14:57:52.173Z,4.85
2023-02-01T15:00:23.831Z,5.15
2023-02-01T15:02:51.664Z,5.70
2023-02-01T15:05:34.872Z,4.47
2023-02-01T15:08:06.626Z,5.55
2023-02-01T15:10:34.758Z,3.85
2023-02-01T15:13:02.177Z,4.00
2023-02-01T15:15:34.334Z,7.38
2023-02-01T15:18:01.752Z,5.22
2023-02-01T15:20:29.682Z,6.25
2023-02-01T15:22:59.408Z,5.25
2023-02-01T15:25:28.120Z,4.70
2023-02-01T15:27:55.638Z,4.13
2023-02-01T15:30:24.762Z,5.35
2023-02-01T15:32:54.204Z,3.58
2023-02-01T15:35:36.991Z,4.10
2023-02-01T15:38:37.733Z,3.88
2023-02-01T15:41:10.232Z,3.22
2023-02-01T15:43:39.315Z,3.25
2023-02-01T15:46:09.835Z,3.28
2023-02-01T15:48:41.846Z,3.40
2023-02-01T15:51:14.553Z,4.85
2023-02-01T15:53:45.153Z,2.55
2023-02-01T15:56:12.521Z,3.83
2023-02-01T15:58:42.248Z,4.70
2023-02-01T16:01:14.363Z,3.80
2023-02-01T16:03:44.239Z,3.05
2023-02-01T16:06:12.609Z,4.25
2023-02-01T16:08:40.378Z,4.57
2023-02-01T16:11:28.410Z,3.83
2023-02-01T16:13:55.840Z,3.65
2023-02-01T16:16:23.770Z,3.47
2023-02-01T16:18:52.545Z,3.30
2023-02-01T16:21:19.998Z,4.03
2023-02-01T16:23:50.422Z,4.35
2023-02-01T16:26:17.829Z,4.25
2023-02-01T16:28:45.445Z,4.88
2023-02-01T16:31:19.888Z,3.97
2023-02-01T16:33:49.144Z,4.30
2023-02-01T16:36:18.000Z,4.03
2023-02-01T16:38:46.071Z,6.13
2023-02-01T16:41:14.384Z,3.58
2023-02-01T16:43:41.768Z,6.43
2023-02-01T16:46:14.471Z,4.22
2023-02-01T16:48:42.705Z,4.75
2023-02-01T16:51:11.502Z,5.13
2023-02-01T16:53:53.434Z,4.00
2023-02-01T16:56:22.919Z,6.60
2023-02-01T16:58:50.463Z,4.53
2023-02-01T17:01:19.171Z,3.90
2023-02-01T17:03:47.367Z,5.10
2023-02-01T17:06:15.640Z,7.25
2023-02-01T17:08:45.215Z,4.30
2023-02-01T17:11:12.972Z,4.43
2023-02-01T17:13:41.812Z,5.38
2023-02-01T17:16:17.736Z,4.68
2023-02-01T17:18:45.319Z,5.93
2023-02-01T17:21:12.675Z,4.88
2023-02-01T17:23:40.694Z,4.53
2023-02-01T17:26:11.580Z,3.67
2023-02-01T17:28:39.034Z,4.93
2023-02-01T17:31:06.539Z,6.20
2023-02-01T17:33:36.718Z,5.15
2023-02-01T17:36:05.702Z,6.63
2023-02-01T17:38:33.075Z,4.30
2023-02-01T17:41:00.502Z,5.18
2023-02-01T17:43:29.310Z,4.00
2023-02-01T17:45:58.305Z,3.60
2023-02-01T17:48:27.919Z,5.05
2023-02-01T17:50:58.671Z,2.67
2023-02-01T17:53:26.132Z,4.95
2023-02-01T17:55:53.536Z,4.95
2023-02-01T17:58:21.005Z,3.97
2023-02-01T18:00:50.093Z,6.97
2023-02-01T18:03:22.843Z,6.63
2023-02-01T18:05:53.296Z,4.65
2023-02-01T18:08:22.656Z,5.82
2023-02-01T18:10:51.274Z,4.75
2023-02-01T18:13:18.691Z,7.35
2023-02-01T18:15:46.090Z,5.78
2023-02-01T18:18:14.827Z,8.15
2023-02-01T18:20:43.325Z,5.60
2023-02-01T18:23:18.616Z,6.30
2023-02-01T18:25:47.082Z,4.45
2023-02-01T18:28:15.328Z,4.90
2023-02-01T18:30:43.046Z,7.57
2023-02-01T18:33:11.898Z,5.63
2023-02-01T18:35:40.755Z,4.80
2023-02-01T18:38:08.248Z,6.55
2023-02-01T18:40:36.506Z,5.57
2023-02-01T18:43:03.941Z,8.88
2023-02-01T18:45:32.631Z,6.18
2023-02-01T18:48:00.539Z,4.97
2023-02-01T18:50:28.335Z,4.30
2023-02-01T18:52:57.735Z,6.82
2023-02-01T18:55:25.828Z,6.15
2023-02-01T18:57:53.460Z,4.75
2023-02-01T19:00:21.835Z,5.75
2023-02-01T19:02:49.421Z,5.90
2023-02-01T19:05:17.013Z,5.43
2023-02-01T19:07:44.458Z,8.27
2023-02-01T19:10:15.914Z,7.85
2023-02-01T19:12:43.349Z,6.28
2023-02-01T19:15:15.439Z,5.63
2023-02-01T19:17:43.666Z,7.63
2023-02-01T19:20:12.400Z,5.88
2023-02-01T19:22:40.286Z,5.93
2023-02-01T19:25:08.389Z,3.80
2023-02-01T19:27:37.104Z,6.78
2023-02-01T19:30:05.062Z,8.38
2023-02-01T19:32:32.422Z,7.65
2023-02-01T19:34:59.905Z,6.28
2023-02-01T19:37:27.277Z,5.40
2023-02-01T19:39:54.663Z,7.07
2023-02-01T19:42:22.030Z,6.20
2023-02-01T19:44:50.728Z,3.60
2023-02-01T19:47:18.115Z,8.10
2023-02-01T19:49:45.504Z,7.03
2023-02-01T19:52:12.959Z,6.95
2023-02-01T19:54:40.342Z,5.70
2023-02-01T19:57:07.717Z,6.93
2023-02-01T19:59:35.113Z,6.05
2023-02-01T20:02:02.929Z,6.78
2023-02-01T20:04:30.368Z,7.55
2023-02-01T20:06:57.736Z,7.93
2023-02-01T20:09:26.744Z,5.90
2023-02-01T20:11:54.739Z,8.05
2023-02-01T20:14:22.478Z,7.32
2023-02-01T20:16:49.894Z,6.80
2023-02-01T20:19:18.596Z,8.02
2023-02-01T20:21:46.619Z,8.65
2023-02-01T20:24:15.138Z,5.15
2023-02-01T20:26:43.807Z,7.43
2023-02-01T20:29:11.288Z,6.03
2023-02-01T20:31:38.706Z,7.68
2023-02-01T20:34:06.111Z,6.53
2023-02-01T20:36:34.804Z,5.85
2023-02-01T20:39:02.493Z,5.55
2023-02-01T20:41:29.876Z,5.13
2023-02-01T20:43:57.269Z,3.95
2023-02-01T20:46:24.752Z,5.00
2023-02-01T20:48:52.208Z,6.57
2023-02-01T20:51:20.741Z,4.53
2023-02-01T20:53:52.465Z,4.28
2023-02-01T20:56:21.133Z,7.70
2023-02-01T20:58:48.512Z,4.63
2023-02-01T21:01:16.158Z,6.80
2023-02-01T21:03:43.599Z,5.68
2023-02-01T21:06:11.451Z,8.52
2023-02-01T21:08:38.882Z,5.88
2023-02-01T21:11:09.145Z,6.35
2023-02-01T21:13:40.439Z,4.45
2023-02-01T21:16:09.465Z,8.52
2023-02-01T21:18:36.927Z,7.65
2023-02-01T21:21:07.439Z,5.95
2023-02-01T21:23:44.551Z,5.35
2023-02-01T21:26:13.489Z,6.78
2023-02-01T21:28:40.919Z,8.23
2023-02-01T21:31:08.461Z,6.75
2023-02-01T21:33:35.905Z,7.35
2023-02-01T21:36:03.719Z,6.22
2023-02-01T21:38:31.115Z,8.55
2023-02-01T21:41:17.558Z,5.30
2023-02-01T21:43:46.901Z,6.55
2023-02-01T21:46:14.302Z,6.65
2023-02-01T21:51:02.552Z,7.50
2023-02-01T21:53:29.949Z,6.63
2023-02-01T21:55:57.353Z,9.93
2023-02-01T21:58:24.742Z,7.95
2023-02-01T22:00:53.457Z,5.72
2023-02-01T22:03:20.862Z,6.07
2023-02-01T22:05:50.370Z,6.47
2023-02-01T22:08:17.809Z,5.10
2023-02-01T22:10:45.202Z,6.38
2023-02-01T22:13:12.899Z,5.78
2023-02-01T22:15:40.283Z,5.75
2023-02-01T22:18:09.278Z,8.48
2023-02-01T22:20:36.697Z,6.78
2023-02-01T22:23:04.230Z,7.60
2023-02-01T22:25:31.810Z,6.72
2023-02-01T22:28:32.318Z,7.85
2023-02-01T22:30:46.648Z,6.28
2023-02-01T22:33:15.376Z,5.25
2023-02-01T22:35:42.760Z,5.63
2023-02-01T22:38:10.148Z,6.75
2023-02-01T22:40:37.536Z,4.65
2023-02-01T22:43:05.336Z,5.03
2023-02-01T22:45:32.721Z,5.85
2023-02-01T22:48:00.121Z,5.53
2023-02-01T22:50:28.819Z,6.85
2023-02-01T22:52:56.203Z,8.85
2023-02-01T22:55:23.993Z,5.13
2023-02-01T22:57:51.702Z,6.63
2023-02-01T23:00:19.523Z,6.57
2023-02-01T23:02:46.917Z,6.38
2023-02-01T23:05:14.442Z,6.53
2023-02-01T23:07:43.785Z,7.25
2023-02-01T23:10:12.645Z,5.13
2023-02-01T23:12:40.006Z,6.78
2023-02-01T23:15:08.427Z,7.15
2023-02-01T23:17:36.156Z,7.15
2023-02-01T23:20:03.646Z,6.03
2023-02-01T23:22:31.062Z,7.18
2023-02-01T23:24:59.938Z,9.10
2023-02-01T23:27:27.711Z,5.53
2023-02-01T23:29:55.103Z,5.50
2023-02-01T23:32:22.479Z,6.38
2023-02-01T23:34:49.863Z,6.60
2023-02-01T23:37:17.299Z,4.85
2023-02-01T23:39:44.693Z,5.28
2023-02-01T23:42:13.391Z,5.20
2023-02-01T23:44:40.774Z,6.00
2023-02-01T23:47:08.152Z,6.00
2023-02-01T23:49:35.536Z,7.18
2023-02-01T23:52:02.967Z,7.65
2023-02-01T23:54:30.351Z,6.10
2023-02-01T23:56:58.027Z,5.90
2023-02-01T23:59:27.027Z,5.00
